Willamette — WDG2204 — position and weather

sailwx.info

Track history (hours):
 
Tides and Currents Weather Stations Pressure Air Temp Water Temp Dewpoint Dewpoint Depression Visibility Wind Speed Wind Dir Waves Ship Positions

Willamette

Owner: Shaver Transportation Company, Portland, OR. More information available from US FCC via Universal Licensing System and Coast Guard Vessel Documentation Center.

Last reported at 2018-Jan-18 21:31 UTC. Time now 2018-Jan-18 21:53 UTC.
Position N 45°39' W 122°45'.

Length 28 m; draft 4.3 m.

Type: Tug. MMSI: 367513230.

Date/timePositionNaut miles runAvg speedWind from/ knotsBaromVisibWave heightAir tempDewpointWater temp
2018-Jan-18 21:31N 45°39' W 122°45'0 0.0
2018-Jan-18 21:00N 45°39' W 122°45'0 0.0
2018-Jan-18 20:30N 45°39' W 122°45'0 0.0
2018-Jan-18 20:01N 45°39' W 122°45'0 0.0
2018-Jan-18 19:30N 45°39' W 122°45'0 0.0
2018-Jan-18 19:00N 45°39' W 122°45'0 0.0
2018-Jan-18 18:30N 45°39' W 122°45'0 0.0
2018-Jan-18 18:00N 45°39' W 122°45'0 0.1
2018-Jan-18 17:30N 45°39' W 122°45'0 0.1
2018-Jan-18 17:00N 45°39' W 122°45'0 0.0
2018-Jan-18 16:30N 45°39' W 122°45'0 0.0
2018-Jan-18 16:00N 45°39' W 122°45'0 0.0
2018-Jan-18 15:30N 45°39' W 122°45'0 0.0
2018-Jan-18 15:00N 45°39' W 122°45'0 0.0
2018-Jan-18 14:30N 45°39' W 122°45'0 0.0
2018-Jan-18 14:00N 45°39' W 122°45'1 1.4
2018-Jan-18 13:30N 45°39' W 122°45'4 7.3
2018-Jan-18 13:00N 45°35' W 122°46'2 4.9
2018-Jan-18 12:30N 45°34' W 122°44'2 3.8
2018-Jan-18 12:00N 45°35' W 122°46'4 7.6
2018-Jan-18 11:31N 45°39' W 122°46'1 1.8
2018-Jan-18 11:00N 45°39' W 122°45'3 6.4
2018-Jan-18 10:30N 45°42' W 122°46'3 6.4
2018-Jan-18 10:00N 45°45' W 122°46'3 6.3
2018-Jan-18 09:30N 45°48' W 122°47'3 6.1
2018-Jan-18 09:01N 45°51' W 122°47'3 5.8
2018-Jan-18 08:30N 45°54' W 122°48'3 5.8
2018-Jan-18 08:00N 45°57' W 122°48'3 5.8
2018-Jan-18 07:30N 45°59' W 122°50'0 0.3
2018-Jan-18 07:00N 45°59' W 122°50'2 3.3
2018-Jan-18 06:30N 46°01' W 122°51'3 6.2
2018-Jan-18 06:00N 46°03' W 122°53'2 4.9
2018-Jan-18 05:30N 46°05' W 122°55'3 5.4
2018-Jan-18 04:59N 46°07' W 122°59'3 6.1
2018-Jan-18 04:31N 46°09' W 123°02'3 6.3
2018-Jan-18 04:01N 46°10' W 123°06'3 6.0
2018-Jan-18 03:30N 46°11' W 123°10'1 1.5
2018-Jan-18 03:00N 46°11' W 123°11'0 0.1
2018-Jan-18 02:30N 46°11' W 123°11'0 0.0
2018-Jan-18 01:48N 46°11' W 123°11'0 0.2
2018-Jan-18 01:21N 46°11' W 123°11'3 8.3
2018-Jan-18 01:00N 46°11' W 123°07'8 8.2
2018-Jan-18 00:00N 46°06' W 122°57'0 8.1
2018-Jan-17 23:57N 46°06' W 122°57'  
2018-Jan-12 15:00N 45°34' W 122°44'0 0.0
2018-Jan-12 14:30N 45°34' W 122°44'2 3.8
2018-Jan-12 14:01N 45°35' W 122°46'3 6.8
2018-Jan-12 13:30N 45°38' W 122°47'1 2.9
2018-Jan-12 13:01N 45°39' W 122°45'0 0.4
2018-Jan-12 12:30N 45°39' W 122°45'0 0.0
2018-Jan-12 12:00N 45°39' W 122°45'0 0.0
2018-Jan-12 11:30N 45°39' W 122°45'0 0.0
2018-Jan-12 11:01N 45°39' W 122°45'0 0.0
2018-Jan-12 10:30N 45°39' W 122°45'0 0.5
2018-Jan-12 10:00N 45°39' W 122°44'0 0.0
2018-Jan-12 09:30N 45°39' W 122°44'1 1.0
2018-Jan-12 09:00N 45°39' W 122°45'0 0.0
2018-Jan-12 08:30N 45°39' W 122°45'0 0.0
2018-Jan-12 08:00N 45°39' W 122°45'0 0.0
2018-Jan-12 07:30N 45°39' W 122°45'2 3.6
2018-Jan-12 07:00N 45°38' W 122°47'1 2.8
2018-Jan-12 06:30N 45°36' W 122°47'0 0.0
2018-Jan-12 06:00N 45°36' W 122°47'0 0.3
2018-Jan-12 04:58N 45°36' W 122°47'3 5.6
2018-Jan-12 04:30N 45°39' W 122°46'1 2.3
2018-Jan-12 04:00N 45°39' W 122°45'0 0.0
2018-Jan-12 03:30N 45°39' W 122°45'0 0.0
2018-Jan-12 03:01N 45°39' W 122°45'0 0.0
2018-Jan-12 02:30N 45°39' W 122°45'0 0.0
2018-Jan-12 02:00N 45°39' W 122°45'1 1.8
2018-Jan-12 01:31N 45°38' W 122°44'1 2.8
2018-Jan-12 01:00N 45°38' W 122°42'2 4.4
2018-Jan-12 00:30N 45°39' W 122°45'0 0.1
2018-Jan-12 00:00N 45°39' W 122°45'0 0.0
2018-Jan-11 23:30N 45°39' W 122°45'0 0.0
2018-Jan-11 23:00N 45°39' W 122°45'0 0.0
2018-Jan-11 22:30N 45°39' W 122°45'0 0.0
2018-Jan-11 22:00N 45°39' W 122°45'0 0.0
2018-Jan-11 21:30N 45°39' W 122°45'0 0.0
2018-Jan-11 21:00N 45°39' W 122°45'0 0.0
2018-Jan-11 20:31N 45°39' W 122°45'0 0.0
2018-Jan-11 20:00N 45°39' W 122°45'0 0.0
2018-Jan-11 19:30N 45°39' W 122°45'0 0.0
2018-Jan-11 19:00N 45°39' W 122°45'0 0.0
2018-Jan-11 18:30N 45°39' W 122°45'0 0.0
2018-Jan-11 18:00N 45°39' W 122°45'0 0.0
2018-Jan-11 17:30N 45°39' W 122°45'0 0.0
2018-Jan-11 17:00N 45°39' W 122°45'2 4.9
2018-Jan-11 16:31N 45°38' W 122°42'2 3.3
2018-Jan-11 16:00N 45°38' W 122°44'1 1.6
2018-Jan-11 15:30N 45°39' W 122°45'2 4.9
2018-Jan-11 15:00N 45°38' W 122°42'2 3.2
2018-Jan-11 14:31N 45°38' W 122°44'0 0.0
2018-Jan-11 14:00N 45°38' W 122°44'0 0.0
2018-Jan-11 13:30N 45°38' W 122°44'0 0.0
2018-Jan-11 13:00N 45°38' W 122°44'0 0.0
2018-Jan-11 12:30N 45°38' W 122°44'0 0.0
2018-Jan-11 12:00N 45°38' W 122°44'0 0.0
2018-Jan-11 11:31N 45°38' W 122°44'0 0.0
2018-Jan-11 11:01N 45°38' W 122°44'1 1.0
2018-Jan-11 10:30N 45°38' W 122°43'0 0.0
2018-Jan-11 10:00N 45°38' W 122°43'0 0.0
2018-Jan-11 09:30N 45°38' W 122°43'0 0.4
2018-Jan-11 09:00N 45°38' W 122°43'1 2.6
2018-Jan-11 08:30N 45°39' W 122°44'1 1.1
2018-Jan-11 08:00N 45°39' W 122°45'2 3.1
2018-Jan-11 07:30N 45°40' W 122°46'0 0.2
2018-Jan-11 07:00N 45°40' W 122°46'0 1.0
2018-Jan-11 06:30N 45°40' W 122°46'4 8.7
2018-Jan-11 06:00N 45°38' W 122°42'1 1.4
2018-Jan-11 05:30N 45°38' W 122°42'2 3.5
2018-Jan-11 05:00N 45°39' W 122°45'0 0.5
2018-Jan-11 04:30N 45°39' W 122°44'0 0.2
2018-Jan-11 04:00N 45°39' W 122°45'1 1.8
2018-Jan-11 03:30N 45°38' W 122°43'1 2.2
2018-Jan-11 03:01N 45°38' W 122°42'0 0.3
2018-Jan-11 02:30N 45°38' W 122°42'0 0.0
2018-Jan-11 02:00N 45°38' W 122°42'0 0.5
2018-Jan-11 01:30N 45°38' W 122°42'2 4.1
2018-Jan-11 01:00N 45°39' W 122°45'0 0.0
2018-Jan-11 00:30N 45°39' W 122°45'0 0.0
2018-Jan-11 00:00N 45°39' W 122°45'0 0.0
2018-Jan-10 23:30N 45°39' W 122°45'0 0.0
2018-Jan-10 23:00N 45°39' W 122°45'0 0.0
2018-Jan-10 22:30N 45°39' W 122°45'1 2.5
2018-Jan-10 22:00N 45°38' W 122°47'3 5.3
2018-Jan-10 21:30N 45°36' W 122°46'1 1.2
2018-Jan-10 21:00N 45°36' W 122°47'1 1.6
2018-Jan-10 20:30N 45°37' W 122°47'0 0.0
2018-Jan-10 19:59N 45°37' W 122°47'1 2.7
2018-Jan-10 19:30N 45°38' W 122°47'0 0.1
2018-Jan-10 19:00N 45°38' W 122°47'1 2.3
2018-Jan-10 18:30N 45°39' W 122°46'1 1.5
2018-Jan-10 18:00N 45°39' W 122°45'0 0.0
2018-Jan-10 17:30N 45°39' W 122°45'0 0.0
2018-Jan-10 17:00N 45°39' W 122°45'0 0.0
2018-Jan-10 16:30N 45°39' W 122°45'0 0.0
2018-Jan-10 16:00N 45°39' W 122°45'0 0.0
2018-Jan-10 15:30N 45°39' W 122°45'0 0.0
2018-Jan-10 15:00N 45°39' W 122°45'0 0.0
2018-Jan-10 14:30N 45°39' W 122°45'0 0.0
2018-Jan-10 14:01N 45°39' W 122°45'0 0.0
2018-Jan-10 13:30N 45°39' W 122°45'0 0.0
2018-Jan-10 13:00N 45°39' W 122°45'0 0.0
2018-Jan-10 12:30N 45°39' W 122°45'0 0.0
2018-Jan-10 12:01N 45°39' W 122°45'0 0.0
2018-Jan-10 11:30N 45°39' W 122°45'0 0.0
2018-Jan-10 11:00N 45°39' W 122°45'0 0.0
2018-Jan-10 10:31N 45°39' W 122°45'0 0.0
2018-Jan-10 10:00N 45°39' W 122°45'0 0.0
2018-Jan-10 09:30N 45°39' W 122°45'0 0.0
2018-Jan-10 09:01N 45°39' W 122°45'1 2.8
2018-Jan-10 08:30N 45°38' W 122°43'3 5.0
2018-Jan-10 08:00N 45°38' W 122°47'0 0.1
2018-Jan-10 07:30N 45°38' W 122°46'0 0.1
2018-Jan-10 07:00N 45°38' W 122°46'1 2.3
2018-Jan-10 06:30N 45°39' W 122°45'0 0.0
2018-Jan-10 06:01N 45°39' W 122°45'0 0.0
2018-Jan-10 05:30N 45°39' W 122°45'0 0.0
2018-Jan-10 05:00N 45°39' W 122°45'1 2.0
2018-Jan-10 04:29N 45°39' W 122°46'3 6.7
2018-Jan-10 04:00N 45°36' W 122°46'3 5.5
2018-Jan-10 03:31N 45°34' W 122°44'0 0.0
2018-Jan-10 03:00N 45°34' W 122°44'0 0.0
2018-Jan-10 02:30N 45°34' W 122°44'0 0.0
2018-Jan-10 02:00N 45°34' W 122°44'0 0.0
2018-Jan-10 01:30N 45°34' W 122°44'0 0.0
2018-Jan-10 01:00N 45°34' W 122°44'0 0.0
2018-Jan-10 00:30N 45°34' W 122°44'0 0.0
2018-Jan-10 00:00N 45°34' W 122°44'0 0.0
2018-Jan-09 23:30N 45°34' W 122°44'0 0.0
2018-Jan-09 23:00N 45°34' W 122°44'0 0.0
2018-Jan-09 22:30N 45°34' W 122°44'0 0.0
2018-Jan-09 22:01N 45°34' W 122°44'0 0.1
2018-Jan-09 21:30N 45°34' W 122°44'0 0.1
2018-Jan-09 21:00N 45°34' W 122°44'0 0.0
2018-Jan-09 20:30N 45°34' W 122°44'0 0.0
2018-Jan-09 20:00N 45°34' W 122°44'0 0.0
2018-Jan-09 19:30N 45°34' W 122°44'0 0.0
2018-Jan-09 19:00N 45°34' W 122°44'0 0.1
2018-Jan-09 18:30N 45°34' W 122°44'2 4.0
2018-Jan-09 18:00N 45°35' W 122°46'3 6.8
2018-Jan-09 17:31N 45°38' W 122°47'0 0.2
2018-Jan-09 17:00N 45°38' W 122°47'1 2.1
2018-Jan-09 16:30N 45°39' W 122°46'2 3.0
2018-Jan-09 16:00N 45°38' W 122°44'0 0.8
2018-Jan-09 15:30N 45°38' W 122°44'0 0.0
2018-Jan-09 15:00N 45°38' W 122°44'0 0.0
2018-Jan-09 14:30N 45°38' W 122°44'0 0.0
2018-Jan-09 14:00N 45°38' W 122°44'0 0.1
2018-Jan-09 13:31N 45°38' W 122°44'0 0.8
2018-Jan-09 13:00N 45°39' W 122°44'1 1.9
2018-Jan-09 12:30N 45°39' W 122°45'2 3.9
2018-Jan-09 12:00N 45°37' W 122°47'4 7.1
2018-Jan-09 11:30N 45°34' W 122°45'1 2.1
2018-Jan-09 11:00N 45°34' W 122°44'0 0.0
2018-Jan-09 10:30N 45°34' W 122°44'0 0.0
2018-Jan-09 10:01N 45°34' W 122°44'0 0.0
2018-Jan-09 09:30N 45°34' W 122°44'0 0.0
2018-Jan-09 09:00N 45°34' W 122°44'0 0.0
2018-Jan-09 08:31N 45°34' W 122°44'0 0.0
2018-Jan-09 08:00N 45°34' W 122°44'0 0.0
2018-Jan-09 07:30N 45°34' W 122°44'1 2.4
2018-Jan-09 07:00N 45°35' W 122°45'3 6.8
2018-Jan-09 06:30N 45°37' W 122°47'2 4.5
2018-Jan-09 06:00N 45°39' W 122°45'1 1.6
2018-Jan-09 05:30N 45°38' W 122°44'1 2.5
2018-Jan-09 05:00N 45°38' W 122°42'1 1.2
2018-Jan-09 04:30N 45°38' W 122°43'1 2.9
2018-Jan-09 04:01N 45°39' W 122°45'0 0.0
2018-Jan-09 03:30N 45°39' W 122°45'2 3.2
2018-Jan-09 03:00N 45°38' W 122°47'4 8.2
2018-Jan-09 02:30N 45°34' W 122°45'4 7.2
2018-Jan-09 02:00N 45°32' W 122°41'0 0.5
2018-Jan-09 01:30N 45°32' W 122°41'2 4.7
2018-Jan-09 01:01N 45°34' W 122°44'0 0.0
2018-Jan-09 00:30N 45°34' W 122°44'0 0.1
2018-Jan-09 00:00N 45°34' W 122°44'0 0.0
2018-Jan-08 23:30N 45°34' W 122°44'1 1.5
2018-Jan-08 23:01N 45°33' W 122°43'2 4.2
2018-Jan-08 22:30N 45°32' W 122°40'0 0.3
2018-Jan-08 22:00N 45°32' W 122°41'0 0.0
2018-Jan-08 21:31N 45°32' W 122°41'  
Track history (hours):
 
Tides and Currents Weather Stations Pressure Air Temp Water Temp Dewpoint Dewpoint Depression Visibility Wind Speed Wind Dir Waves Ship Positions

Willamette

Owner: Shaver Transportation Company, Portland, OR. More information available from US FCC via Universal Licensing System and Coast Guard Vessel Documentation Center.

Last reported at 2018-Jan-18 21:31 UTC. Time now 2018-Jan-18 21:53 UTC.
Position N 45°39' W 122°45'.

Length 28 m; draft 4.3 m.

Type: Tug. MMSI: 367513230.

Date/timePositionNaut miles runAvg speedWind from/ knotsBaromVisibWave heightAir tempDewpointWater temp
2018-Jan-18 21:31N 45°39' W 122°45'0 0.0
2018-Jan-18 21:00N 45°39' W 122°45'0 0.0
2018-Jan-18 20:30N 45°39' W 122°45'0 0.0
2018-Jan-18 20:01N 45°39' W 122°45'0 0.0
2018-Jan-18 19:30N 45°39' W 122°45'0 0.0
2018-Jan-18 19:00N 45°39' W 122°45'0 0.0
2018-Jan-18 18:30N 45°39' W 122°45'0 0.0
2018-Jan-18 18:00N 45°39' W 122°45'0 0.1
2018-Jan-18 17:30N 45°39' W 122°45'0 0.1
2018-Jan-18 17:00N 45°39' W 122°45'0 0.0
2018-Jan-18 16:30N 45°39' W 122°45'0 0.0
2018-Jan-18 16:00N 45°39' W 122°45'0 0.0
2018-Jan-18 15:30N 45°39' W 122°45'0 0.0
2018-Jan-18 15:00N 45°39' W 122°45'0 0.0
2018-Jan-18 14:30N 45°39' W 122°45'0 0.0
2018-Jan-18 14:00N 45°39' W 122°45'1 1.4
2018-Jan-18 13:30N 45°39' W 122°45'4 7.3
2018-Jan-18 13:00N 45°35' W 122°46'2 4.9
2018-Jan-18 12:30N 45°34' W 122°44'2 3.8
2018-Jan-18 12:00N 45°35' W 122°46'4 7.6
2018-Jan-18 11:31N 45°39' W 122°46'1 1.8
2018-Jan-18 11:00N 45°39' W 122°45'3 6.4
2018-Jan-18 10:30N 45°42' W 122°46'3 6.4
2018-Jan-18 10:00N 45°45' W 122°46'3 6.3
2018-Jan-18 09:30N 45°48' W 122°47'3 6.1
2018-Jan-18 09:01N 45°51' W 122°47'3 5.8
2018-Jan-18 08:30N 45°54' W 122°48'3 5.8
2018-Jan-18 08:00N 45°57' W 122°48'3 5.8
2018-Jan-18 07:30N 45°59' W 122°50'0 0.3
2018-Jan-18 07:00N 45°59' W 122°50'2 3.3
2018-Jan-18 06:30N 46°01' W 122°51'3 6.2
2018-Jan-18 06:00N 46°03' W 122°53'2 4.9
2018-Jan-18 05:30N 46°05' W 122°55'3 5.4
2018-Jan-18 04:59N 46°07' W 122°59'3 6.1
2018-Jan-18 04:31N 46°09' W 123°02'3 6.3
2018-Jan-18 04:01N 46°10' W 123°06'3 6.0
2018-Jan-18 03:30N 46°11' W 123°10'1 1.5
2018-Jan-18 03:00N 46°11' W 123°11'0 0.1
2018-Jan-18 02:30N 46°11' W 123°11'0 0.0
2018-Jan-18 01:48N 46°11' W 123°11'0 0.2
2018-Jan-18 01:21N 46°11' W 123°11'3 8.3
2018-Jan-18 01:00N 46°11' W 123°07'8 8.2
2018-Jan-18 00:00N 46°06' W 122°57'0 8.1
2018-Jan-17 23:57N 46°06' W 122°57'  
2018-Jan-12 15:00N 45°34' W 122°44'0 0.0
2018-Jan-12 14:30N 45°34' W 122°44'2 3.8
2018-Jan-12 14:01N 45°35' W 122°46'3 6.8
2018-Jan-12 13:30N 45°38' W 122°47'1 2.9
2018-Jan-12 13:01N 45°39' W 122°45'0 0.4
2018-Jan-12 12:30N 45°39' W 122°45'0 0.0
2018-Jan-12 12:00N 45°39' W 122°45'0 0.0
2018-Jan-12 11:30N 45°39' W 122°45'0 0.0
2018-Jan-12 11:01N 45°39' W 122°45'0 0.0
2018-Jan-12 10:30N 45°39' W 122°45'0 0.5
2018-Jan-12 10:00N 45°39' W 122°44'0 0.0
2018-Jan-12 09:30N 45°39' W 122°44'1 1.0
2018-Jan-12 09:00N 45°39' W 122°45'0 0.0
2018-Jan-12 08:30N 45°39' W 122°45'0 0.0
2018-Jan-12 08:00N 45°39' W 122°45'0 0.0
2018-Jan-12 07:30N 45°39' W 122°45'2 3.6
2018-Jan-12 07:00N 45°38' W 122°47'1 2.8
2018-Jan-12 06:30N 45°36' W 122°47'0 0.0
2018-Jan-12 06:00N 45°36' W 122°47'0 0.3
2018-Jan-12 04:58N 45°36' W 122°47'3 5.6
2018-Jan-12 04:30N 45°39' W 122°46'1 2.3
2018-Jan-12 04:00N 45°39' W 122°45'0 0.0
2018-Jan-12 03:30N 45°39' W 122°45'0 0.0
2018-Jan-12 03:01N 45°39' W 122°45'0 0.0
2018-Jan-12 02:30N 45°39' W 122°45'0 0.0
2018-Jan-12 02:00N 45°39' W 122°45'1 1.8
2018-Jan-12 01:31N 45°38' W 122°44'1 2.8
2018-Jan-12 01:00N 45°38' W 122°42'2 4.4
2018-Jan-12 00:30N 45°39' W 122°45'0 0.1
2018-Jan-12 00:00N 45°39' W 122°45'0 0.0
2018-Jan-11 23:30N 45°39' W 122°45'0 0.0
2018-Jan-11 23:00N 45°39' W 122°45'0 0.0
2018-Jan-11 22:30N 45°39' W 122°45'0 0.0
2018-Jan-11 22:00N 45°39' W 122°45'0 0.0
2018-Jan-11 21:30N 45°39' W 122°45'0 0.0
2018-Jan-11 21:00N 45°39' W 122°45'0 0.0
2018-Jan-11 20:31N 45°39' W 122°45'0 0.0
2018-Jan-11 20:00N 45°39' W 122°45'0 0.0
2018-Jan-11 19:30N 45°39' W 122°45'0 0.0
2018-Jan-11 19:00N 45°39' W 122°45'0 0.0
2018-Jan-11 18:30N 45°39' W 122°45'0 0.0
2018-Jan-11 18:00N 45°39' W 122°45'0 0.0
2018-Jan-11 17:30N 45°39' W 122°45'0 0.0
2018-Jan-11 17:00N 45°39' W 122°45'2 4.9
2018-Jan-11 16:31N 45°38' W 122°42'2 3.3
2018-Jan-11 16:00N 45°38' W 122°44'1 1.6
2018-Jan-11 15:30N 45°39' W 122°45'2 4.9
2018-Jan-11 15:00N 45°38' W 122°42'2 3.2
2018-Jan-11 14:31N 45°38' W 122°44'0 0.0
2018-Jan-11 14:00N 45°38' W 122°44'0 0.0
2018-Jan-11 13:30N 45°38' W 122°44'0 0.0
2018-Jan-11 13:00N 45°38' W 122°44'0 0.0
2018-Jan-11 12:30N 45°38' W 122°44'0 0.0
2018-Jan-11 12:00N 45°38' W 122°44'0 0.0
2018-Jan-11 11:31N 45°38' W 122°44'0 0.0
2018-Jan-11 11:01N 45°38' W 122°44'1 1.0
2018-Jan-11 10:30N 45°38' W 122°43'0 0.0
2018-Jan-11 10:00N 45°38' W 122°43'0 0.0
2018-Jan-11 09:30N 45°38' W 122°43'0 0.4
2018-Jan-11 09:00N 45°38' W 122°43'1 2.6
2018-Jan-11 08:30N 45°39' W 122°44'1 1.1
2018-Jan-11 08:00N 45°39' W 122°45'2 3.1
2018-Jan-11 07:30N 45°40' W 122°46'0 0.2
2018-Jan-11 07:00N 45°40' W 122°46'0 1.0
2018-Jan-11 06:30N 45°40' W 122°46'4 8.7
2018-Jan-11 06:00N 45°38' W 122°42'1 1.4
2018-Jan-11 05:30N 45°38' W 122°42'2 3.5
2018-Jan-11 05:00N 45°39' W 122°45'0 0.5
2018-Jan-11 04:30N 45°39' W 122°44'0 0.2
2018-Jan-11 04:00N 45°39' W 122°45'1 1.8
2018-Jan-11 03:30N 45°38' W 122°43'1 2.2
2018-Jan-11 03:01N 45°38' W 122°42'0 0.3
2018-Jan-11 02:30N 45°38' W 122°42'0 0.0
2018-Jan-11 02:00N 45°38' W 122°42'0 0.5
2018-Jan-11 01:30N 45°38' W 122°42'2 4.1
2018-Jan-11 01:00N 45°39' W 122°45'0 0.0
2018-Jan-11 00:30N 45°39' W 122°45'0 0.0
2018-Jan-11 00:00N 45°39' W 122°45'0 0.0
2018-Jan-10 23:30N 45°39' W 122°45'0 0.0
2018-Jan-10 23:00N 45°39' W 122°45'0 0.0
2018-Jan-10 22:30N 45°39' W 122°45'1 2.5
2018-Jan-10 22:00N 45°38' W 122°47'3 5.3
2018-Jan-10 21:30N 45°36' W 122°46'1 1.2
2018-Jan-10 21:00N 45°36' W 122°47'1 1.6
2018-Jan-10 20:30N 45°37' W 122°47'0 0.0
2018-Jan-10 19:59N 45°37' W 122°47'1 2.7
2018-Jan-10 19:30N 45°38' W 122°47'0 0.1
2018-Jan-10 19:00N 45°38' W 122°47'1 2.3
2018-Jan-10 18:30N 45°39' W 122°46'1 1.5
2018-Jan-10 18:00N 45°39' W 122°45'0 0.0
2018-Jan-10 17:30N 45°39' W 122°45'0 0.0
2018-Jan-10 17:00N 45°39' W 122°45'0 0.0
2018-Jan-10 16:30N 45°39' W 122°45'0 0.0
2018-Jan-10 16:00N 45°39' W 122°45'0 0.0
2018-Jan-10 15:30N 45°39' W 122°45'0 0.0
2018-Jan-10 15:00N 45°39' W 122°45'0 0.0
2018-Jan-10 14:30N 45°39' W 122°45'0 0.0
2018-Jan-10 14:01N 45°39' W 122°45'0 0.0
2018-Jan-10 13:30N 45°39' W 122°45'0 0.0
2018-Jan-10 13:00N 45°39' W 122°45'0 0.0
2018-Jan-10 12:30N 45°39' W 122°45'0 0.0
2018-Jan-10 12:01N 45°39' W 122°45'0 0.0
2018-Jan-10 11:30N 45°39' W 122°45'0 0.0
2018-Jan-10 11:00N 45°39' W 122°45'0 0.0
2018-Jan-10 10:31N 45°39' W 122°45'0 0.0
2018-Jan-10 10:00N 45°39' W 122°45'0 0.0
2018-Jan-10 09:30N 45°39' W 122°45'0 0.0
2018-Jan-10 09:01N 45°39' W 122°45'1 2.8
2018-Jan-10 08:30N 45°38' W 122°43'3 5.0
2018-Jan-10 08:00N 45°38' W 122°47'0 0.1
2018-Jan-10 07:30N 45°38' W 122°46'0 0.1
2018-Jan-10 07:00N 45°38' W 122°46'1 2.3
2018-Jan-10 06:30N 45°39' W 122°45'0 0.0
2018-Jan-10 06:01N 45°39' W 122°45'0 0.0
2018-Jan-10 05:30N 45°39' W 122°45'0 0.0
2018-Jan-10 05:00N 45°39' W 122°45'1 2.0
2018-Jan-10 04:29N 45°39' W 122°46'3 6.7
2018-Jan-10 04:00N 45°36' W 122°46'3 5.5
2018-Jan-10 03:31N 45°34' W 122°44'0 0.0
2018-Jan-10 03:00N 45°34' W 122°44'0 0.0
2018-Jan-10 02:30N 45°34' W 122°44'0 0.0
2018-Jan-10 02:00N 45°34' W 122°44'0 0.0
2018-Jan-10 01:30N 45°34' W 122°44'0 0.0
2018-Jan-10 01:00N 45°34' W 122°44'0 0.0
2018-Jan-10 00:30N 45°34' W 122°44'0 0.0
2018-Jan-10 00:00N 45°34' W 122°44'0 0.0
2018-Jan-09 23:30N 45°34' W 122°44'0 0.0
2018-Jan-09 23:00N 45°34' W 122°44'0 0.0
2018-Jan-09 22:30N 45°34' W 122°44'0 0.0
2018-Jan-09 22:01N 45°34' W 122°44'0 0.1
2018-Jan-09 21:30N 45°34' W 122°44'0 0.1
2018-Jan-09 21:00N 45°34' W 122°44'0 0.0
2018-Jan-09 20:30N 45°34' W 122°44'0 0.0
2018-Jan-09 20:00N 45°34' W 122°44'0 0.0
2018-Jan-09 19:30N 45°34' W 122°44'0 0.0
2018-Jan-09 19:00N 45°34' W 122°44'0 0.1
2018-Jan-09 18:30N 45°34' W 122°44'2 4.0
2018-Jan-09 18:00N 45°35' W 122°46'3 6.8
2018-Jan-09 17:31N 45°38' W 122°47'0 0.2
2018-Jan-09 17:00N 45°38' W 122°47'1 2.1
2018-Jan-09 16:30N 45°39' W 122°46'2 3.0
2018-Jan-09 16:00N 45°38' W 122°44'0 0.8
2018-Jan-09 15:30N 45°38' W 122°44'0 0.0
2018-Jan-09 15:00N 45°38' W 122°44'0 0.0
2018-Jan-09 14:30N 45°38' W 122°44'0 0.0
2018-Jan-09 14:00N 45°38' W 122°44'0 0.1
2018-Jan-09 13:31N 45°38' W 122°44'0 0.8
2018-Jan-09 13:00N 45°39' W 122°44'1 1.9
2018-Jan-09 12:30N 45°39' W 122°45'2 3.9
2018-Jan-09 12:00N 45°37' W 122°47'4 7.1
2018-Jan-09 11:30N 45°34' W 122°45'1 2.1
2018-Jan-09 11:00N 45°34' W 122°44'0 0.0
2018-Jan-09 10:30N 45°34' W 122°44'0 0.0
2018-Jan-09 10:01N 45°34' W 122°44'0 0.0
2018-Jan-09 09:30N 45°34' W 122°44'0 0.0
2018-Jan-09 09:00N 45°34' W 122°44'0 0.0
2018-Jan-09 08:31N 45°34' W 122°44'0 0.0
2018-Jan-09 08:00N 45°34' W 122°44'0 0.0
2018-Jan-09 07:30N 45°34' W 122°44'1 2.4
2018-Jan-09 07:00N 45°35' W 122°45'3 6.8
2018-Jan-09 06:30N 45°37' W 122°47'2 4.5
2018-Jan-09 06:00N 45°39' W 122°45'1 1.6
2018-Jan-09 05:30N 45°38' W 122°44'1 2.5
2018-Jan-09 05:00N 45°38' W 122°42'1 1.2
2018-Jan-09 04:30N 45°38' W 122°43'1 2.9
2018-Jan-09 04:01N 45°39' W 122°45'0 0.0
2018-Jan-09 03:30N 45°39' W 122°45'2 3.2
2018-Jan-09 03:00N 45°38' W 122°47'4 8.2
2018-Jan-09 02:30N 45°34' W 122°45'4 7.2
2018-Jan-09 02:00N 45°32' W 122°41'0 0.5
2018-Jan-09 01:30N 45°32' W 122°41'2 4.7
2018-Jan-09 01:01N 45°34' W 122°44'0 0.0
2018-Jan-09 00:30N 45°34' W 122°44'0 0.1
2018-Jan-09 00:00N 45°34' W 122°44'0 0.0
2018-Jan-08 23:30N 45°34' W 122°44'1 1.5
2018-Jan-08 23:01N 45°33' W 122°43'2 4.2
2018-Jan-08 22:30N 45°32' W 122°40'0 0.3
2018-Jan-08 22:00N 45°32' W 122°41'0 0.0
2018-Jan-08 21:31N 45°32' W 122°41'  

Dump ship's entire track history